sensor_id;sensor_type;location;lat;lon;timestamp;pressure;altitude;pressure_sealevel;temperature;humidity
7335;BME280;3708;42.632;23.378;2022-12-18T00:01:21;95009.72;;;8.06;72.65
7335;BME280;3708;42.632;23.378;2022-12-18T00:03:48;94997.66;;;8.10;72.63
7335;BME280;3708;42.632;23.378;2022-12-18T00:06:16;95003.09;;;7.95;72.84
7335;BME280;3708;42.632;23.378;2022-12-18T00:08:44;95004.34;;;7.79;73.96
7335;BME280;3708;42.632;23.378;2022-12-18T00:11:13;95009.22;;;7.48;74.75
7335;BME280;3708;42.632;23.378;2022-12-18T00:13:42;95014.84;;;7.92;73.19
7335;BME280;3708;42.632;23.378;2022-12-18T00:16:18;95018.78;;;7.90;73.77
7335;BME280;3708;42.632;23.378;2022-12-18T00:18:46;95019.94;;;7.84;72.96
7335;BME280;3708;42.632;23.378;2022-12-18T00:21:15;95024.84;;;7.85;72.55
7335;BME280;3708;42.632;23.378;2022-12-18T00:23:44;95028.44;;;7.52;73.10
7335;BME280;3708;42.632;23.378;2022-12-18T00:26:15;95032.72;;;7.43;74.00
7335;BME280;3708;42.632;23.378;2022-12-18T00:28:45;95035.50;;;7.28;73.67
7335;BME280;3708;42.632;23.378;2022-12-18T00:31:17;95029.66;;;7.36;74.42
7335;BME280;3708;42.632;23.378;2022-12-18T00:33:44;95030.66;;;7.40;73.51
7335;BME280;3708;42.632;23.378;2022-12-18T00:36:13;95052.25;;;7.45;73.07
7335;BME280;3708;42.632;23.378;2022-12-18T00:38:41;95040.00;;;7.46;72.59
7335;BME280;3708;42.632;23.378;2022-12-18T00:41:11;95036.44;;;7.37;73.79
7335;BME280;3708;42.632;23.378;2022-12-18T00:43:39;95047.31;;;7.44;73.57
7335;BME280;3708;42.632;23.378;2022-12-18T00:46:05;95043.59;;;7.26;73.72
7335;BME280;3708;42.632;23.378;2022-12-18T00:48:35;95052.16;;;7.74;72.47
7335;BME280;3708;42.632;23.378;2022-12-18T00:51:03;95043.81;;;7.30;73.41
7335;BME280;3708;42.632;23.378;2022-12-18T00:53:30;95054.41;;;7.15;74.36
7335;BME280;3708;42.632;23.378;2022-12-18T00:55:57;95053.13;;;7.12;73.93
7335;BME280;3708;42.632;23.378;2022-12-18T00:58:23;95063.50;;;7.17;73.73
7335;BME280;3708;42.632;23.378;2022-12-18T01:00:50;95051.44;;;7.26;73.15
7335;BME280;3708;42.632;23.378;2022-12-18T01:03:18;95053.44;;;7.53;73.58
7335;BME280;3708;42.632;23.378;2022-12-18T01:05:47;95055.84;;;7.49;73.13
7335;BME280;3708;42.632;23.378;2022-12-18T01:08:14;95055.19;;;7.39;73.31
7335;BME280;3708;42.632;23.378;2022-12-18T01:10:41;95059.06;;;6.94;74.27
7335;BME280;3708;42.632;23.378;2022-12-18T01:13:08;95066.94;;;7.36;74.21
7335;BME280;3708;42.632;23.378;2022-12-18T01:15:35;95060.50;;;7.05;73.66
7335;BME280;3708;42.632;23.378;2022-12-18T01:18:05;95057.72;;;6.97;74.74
7335;BME280;3708;42.632;23.378;2022-12-18T01:20:32;95067.59;;;7.00;74.80
7335;BME280;3708;42.632;23.378;2022-12-18T01:23:02;95071.34;;;6.88;74.50
7335;BME280;3708;42.632;23.378;2022-12-18T01:25:29;95063.78;;;6.92;74.55
7335;BME280;3708;42.632;23.378;2022-12-18T01:27:56;95076.56;;;7.12;73.63
7335;BME280;3708;42.632;23.378;2022-12-18T01:30:23;95073.75;;;6.80;74.67
7335;BME280;3708;42.632;23.378;2022-12-18T01:32:50;95083.53;;;6.64;74.57
7335;BME280;3708;42.632;23.378;2022-12-18T01:35:17;95082.72;;;6.35;75.63
7335;BME280;3708;42.632;23.378;2022-12-18T01:37:44;95079.06;;;6.99;74.21
7335;BME280;3708;42.632;23.378;2022-12-18T01:40:13;95067.53;;;6.47;74.74
7335;BME280;3708;42.632;23.378;2022-12-18T01:42:40;95089.88;;;6.53;73.75
7335;BME280;3708;42.632;23.378;2022-12-18T01:45:22;95093.13;;;6.35;74.97
7335;BME280;3708;42.632;23.378;2022-12-18T01:47:52;95093.13;;;6.69;73.85
7335;BME280;3708;42.632;23.378;2022-12-18T01:50:22;95101.22;;;6.67;73.14
7335;BME280;3708;42.632;23.378;2022-12-18T01:52:53;95099.25;;;6.49;72.77
7335;BME280;3708;42.632;23.378;2022-12-18T01:55:24;95101.09;;;6.10;74.77
7335;BME280;3708;42.632;23.378;2022-12-18T01:57:52;95084.69;;;6.53;72.98
7335;BME280;3708;42.632;23.378;2022-12-18T02:00:22;95116.56;;;6.30;73.48
7335;BME280;3708;42.632;23.378;2022-12-18T02:02:50;95112.56;;;6.04;74.23
7335;BME280;3708;42.632;23.378;2022-12-18T02:05:27;95100.91;;;6.40;73.62
7335;BME280;3708;42.632;23.378;2022-12-18T02:08:01;95106.75;;;6.17;74.09
7335;BME280;3708;42.632;23.378;2022-12-18T02:10:37;95118.03;;;6.07;74.64
7335;BME280;3708;42.632;23.378;2022-12-18T02:13:12;95125.38;;;6.39;72.38
7335;BME280;3708;42.632;23.378;2022-12-18T02:15:44;95107.41;;;6.76;71.42
7335;BME280;3708;42.632;23.378;2022-12-18T02:18:19;95113.56;;;6.52;71.47
7335;BME280;3708;42.632;23.378;2022-12-18T02:20:52;95114.25;;;6.29;72.66
7335;BME280;3708;42.632;23.378;2022-12-18T02:23:36;95126.94;;;6.40;74.27
7335;BME280;3708;42.632;23.378;2022-12-18T02:26:20;95120.09;;;6.49;72.39
7335;BME280;3708;42.632;23.378;2022-12-18T02:28:53;95131.81;;;6.08;74.01
7335;BME280;3708;42.632;23.378;2022-12-18T02:31:23;95127.03;;;6.25;73.48
7335;BME280;3708;42.632;23.378;2022-12-18T02:33:52;95120.63;;;6.46;72.64
7335;BME280;3708;42.632;23.378;2022-12-18T02:36:21;95126.84;;;6.11;73.45
7335;BME280;3708;42.632;23.378;2022-12-18T02:38:50;95134.91;;;6.10;73.60
7335;BME280;3708;42.632;23.378;2022-12-18T02:41:21;95137.00;;;6.08;73.70
7335;BME280;3708;42.632;23.378;2022-12-18T02:43:52;95145.34;;;6.05;73.36
7335;BME280;3708;42.632;23.378;2022-12-18T02:46:30;95125.13;;;5.92;74.63
7335;BME280;3708;42.632;23.378;2022-12-18T02:49:05;95135.16;;;6.08;73.79
7335;BME280;3708;42.632;23.378;2022-12-18T02:51:38;95133.28;;;6.24;73.94
7335;BME280;3708;42.632;23.378;2022-12-18T02:54:10;95136.47;;;6.50;72.51
7335;BME280;3708;42.632;23.378;2022-12-18T02:56:46;95140.53;;;6.27;72.92
7335;BME280;3708;42.632;23.378;2022-12-18T02:59:19;95151.97;;;6.31;71.60
7335;BME280;3708;42.632;23.378;2022-12-18T03:01:51;95148.56;;;6.69;71.49
7335;BME280;3708;42.632;23.378;2022-12-18T03:04:25;95144.38;;;6.35;72.87
7335;BME280;3708;42.632;23.378;2022-12-18T03:06:56;95168.72;;;6.10;72.33
7335;BME280;3708;42.632;23.378;2022-12-18T03:09:27;95156.03;;;5.93;73.29
7335;BME280;3708;42.632;23.378;2022-12-18T03:12:04;95155.88;;;6.67;70.92
7335;BME280;3708;42.632;23.378;2022-12-18T03:15:02;95164.91;;;6.41;71.21
7335;BME280;3708;42.632;23.378;2022-12-18T03:17:31;95163.25;;;6.17;72.06
7335;BME280;3708;42.632;23.378;2022-12-18T03:20:04;95152.91;;;6.45;70.53
7335;BME280;3708;42.632;23.378;2022-12-18T03:22:33;95168.22;;;6.52;69.98
7335;BME280;3708;42.632;23.378;2022-12-18T03:25:05;95164.19;;;6.31;71.63
7335;BME280;3708;42.632;23.378;2022-12-18T03:27:35;95158.56;;;6.13;71.78
7335;BME280;3708;42.632;23.378;2022-12-18T03:30:06;95171.41;;;5.95;72.25
7335;BME280;3708;42.632;23.378;2022-12-18T03:32:39;95177.44;;;5.75;72.96
7335;BME280;3708;42.632;23.378;2022-12-18T03:35:09;95182.41;;;6.31;71.89
7335;BME280;3708;42.632;23.378;2022-12-18T03:37:37;95188.31;;;5.92;72.76
7335;BME280;3708;42.632;23.378;2022-12-18T03:40:05;95191.91;;;6.55;70.89
7335;BME280;3708;42.632;23.378;2022-12-18T03:42:40;95188.81;;;6.87;70.07
7335;BME280;3708;42.632;23.378;2022-12-18T03:45:12;95189.84;;;6.47;70.95
7335;BME280;3708;42.632;23.378;2022-12-18T03:47:47;95219.84;;;6.83;69.53
7335;BME280;3708;42.632;23.378;2022-12-18T03:50:21;95219.88;;;6.73;68.66
7335;BME280;3708;42.632;23.378;2022-12-18T03:52:51;95217.34;;;6.63;70.08
7335;BME280;3708;42.632;23.378;2022-12-18T03:55:21;95216.66;;;6.48;70.41
7335;BME280;3708;42.632;23.378;2022-12-18T03:57:52;95215.63;;;5.90;71.65
7335;BME280;3708;42.632;23.378;2022-12-18T04:00:22;95218.56;;;6.32;71.43
7335;BME280;3708;42.632;23.378;2022-12-18T04:02:53;95215.69;;;6.34;69.58
7335;BME280;3708;42.632;23.378;2022-12-18T04:05:25;95214.56;;;5.81;71.22
7335;BME280;3708;42.632;23.378;2022-12-18T04:07:59;95215.44;;;6.30;69.37
7335;BME280;3708;42.632;23.378;2022-12-18T04:10:29;95210.00;;;5.43;72.21
7335;BME280;3708;42.632;23.378;2022-12-18T04:13:04;95211.03;;;5.52;71.95
7335;BME280;3708;42.632;23.378;2022-12-18T04:15:36;95220.41;;;5.32;71.84
7335;BME280;3708;42.632;23.378;2022-12-18T04:18:11;95214.16;;;5.23;73.54
7335;BME280;3708;42.632;23.378;2022-12-18T04:20:39;95226.50;;;6.02;70.81
7335;BME280;3708;42.632;23.378;2022-12-18T04:23:07;95233.38;;;5.43;72.18
7335;BME280;3708;42.632;23.378;2022-12-18T04:25:44;95237.00;;;5.52;70.57
7335;BME280;3708;42.632;23.378;2022-12-18T04:28:13;95233.59;;;5.71;71.04
7335;BME280;3708;42.632;23.378;2022-12-18T04:30:52;95239.34;;;5.53;71.21
7335;BME280;3708;42.632;23.378;2022-12-18T04:33:19;95240.06;;;5.74;70.33
7335;BME280;3708;42.632;23.378;2022-12-18T04:35:46;95243.75;;;5.43;70.33
7335;BME280;3708;42.632;23.378;2022-12-18T04:38:15;95255.44;;;5.60;70.58
7335;BME280;3708;42.632;23.378;2022-12-18T04:40:48;95254.94;;;5.38;70.48
7335;BME280;3708;42.632;23.378;2022-12-18T04:43:18;95252.63;;;5.36;70.80
7335;BME280;3708;42.632;23.378;2022-12-18T04:45:45;95267.16;;;5.32;69.43
7335;BME280;3708;42.632;23.378;2022-12-18T04:48:15;95264.28;;;5.14;70.11
7335;BME280;3708;42.632;23.378;2022-12-18T04:50:42;95267.94;;;5.28;68.85
7335;BME280;3708;42.632;23.378;2022-12-18T04:53:08;95259.38;;;5.17;70.23
7335;BME280;3708;42.632;23.378;2022-12-18T04:55:35;95258.31;;;5.08;70.26
7335;BME280;3708;42.632;23.378;2022-12-18T04:58:02;95281.19;;;5.31;68.51
7335;BME280;3708;42.632;23.378;2022-12-18T05:00:31;95280.91;;;5.73;67.56
7335;BME280;3708;42.632;23.378;2022-12-18T05:02:57;95269.75;;;5.12;69.13
7335;BME280;3708;42.632;23.378;2022-12-18T05:05:27;95287.94;;;5.32;68.88
7335;BME280;3708;42.632;23.378;2022-12-18T05:07:54;95269.22;;;5.51;68.11
7335;BME280;3708;42.632;23.378;2022-12-18T05:10:20;95288.69;;;4.93;68.33
7335;BME280;3708;42.632;23.378;2022-12-18T05:12:47;95291.31;;;5.28;67.79
7335;BME280;3708;42.632;23.378;2022-12-18T05:15:28;95293.38;;;5.21;68.52
7335;BME280;3708;42.632;23.378;2022-12-18T05:17:58;95319.88;;;5.23;68.48
7335;BME280;3708;42.632;23.378;2022-12-18T05:20:26;95307.16;;;5.31;68.10
7335;BME280;3708;42.632;23.378;2022-12-18T05:22:53;95309.25;;;5.29;67.48
7335;BME280;3708;42.632;23.378;2022-12-18T05:25:21;95318.81;;;4.99;68.78
7335;BME280;3708;42.632;23.378;2022-12-18T05:27:48;95333.63;;;5.18;68.09
7335;BME280;3708;42.632;23.378;2022-12-18T05:30:16;95327.41;;;5.14;68.18
7335;BME280;3708;42.632;23.378;2022-12-18T05:32:43;95320.16;;;5.52;66.78
7335;BME280;3708;42.632;23.378;2022-12-18T05:35:11;95341.19;;;5.40;67.22
7335;BME280;3708;42.632;23.378;2022-12-18T05:37:38;95340.41;;;6.00;66.24
7335;BME280;3708;42.632;23.378;2022-12-18T05:40:07;95336.78;;;5.51;67.47
7335;BME280;3708;42.632;23.378;2022-12-18T05:42:34;95335.47;;;5.23;67.34
7335;BME280;3708;42.632;23.378;2022-12-18T05:45:01;95340.41;;;5.29;66.75
7335;BME280;3708;42.632;23.378;2022-12-18T05:47:28;95346.38;;;5.35;67.08
7335;BME280;3708;42.632;23.378;2022-12-18T05:49:55;95334.16;;;5.20;68.27
7335;BME280;3708;42.632;23.378;2022-12-18T05:52:23;95355.50;;;5.78;65.68
7335;BME280;3708;42.632;23.378;2022-12-18T05:54:50;95341.41;;;5.13;67.43
7335;BME280;3708;42.632;23.378;2022-12-18T05:57:17;95371.00;;;5.07;67.88
7335;BME280;3708;42.632;23.378;2022-12-18T05:59:44;95364.22;;;4.86;68.22
7335;BME280;3708;42.632;23.378;2022-12-18T06:02:11;95361.63;;;4.96;67.63
7335;BME280;3708;42.632;23.378;2022-12-18T06:04:38;95345.09;;;5.53;66.74
7335;BME280;3708;42.632;23.378;2022-12-18T06:07:05;95354.44;;;5.59;65.70
7335;BME280;3708;42.632;23.378;2022-12-18T06:09:33;95358.31;;;5.11;67.07
7335;BME280;3708;42.632;23.378;2022-12-18T06:12:00;95357.31;;;5.77;65.96
7335;BME280;3708;42.632;23.378;2022-12-18T06:14:27;95352.34;;;5.15;66.88
7335;BME280;3708;42.632;23.378;2022-12-18T06:16:54;95360.94;;;5.46;66.11
7335;BME280;3708;42.632;23.378;2022-12-18T06:19:21;95374.72;;;5.62;65.73
7335;BME280;3708;42.632;23.378;2022-12-18T06:21:48;95375.25;;;5.54;66.13
7335;BME280;3708;42.632;23.378;2022-12-18T06:24:16;95384.56;;;5.24;66.89
7335;BME280;3708;42.632;23.378;2022-12-18T06:26:45;95372.56;;;5.03;66.89
7335;BME280;3708;42.632;23.378;2022-12-18T06:29:13;95376.53;;;5.36;66.11
7335;BME280;3708;42.632;23.378;2022-12-18T06:31:42;95380.47;;;5.69;64.94
7335;BME280;3708;42.632;23.378;2022-12-18T06:34:09;95401.47;;;5.42;67.62
7335;BME280;3708;42.632;23.378;2022-12-18T06:36:36;95402.25;;;5.53;65.24
7335;BME280;3708;42.632;23.378;2022-12-18T06:39:03;95404.84;;;5.27;66.81
7335;BME280;3708;42.632;23.378;2022-12-18T06:41:30;95404.81;;;5.17;66.90
7335;BME280;3708;42.632;23.378;2022-12-18T06:43:59;95409.81;;;5.39;66.30
7335;BME280;3708;42.632;23.378;2022-12-18T06:46:27;95407.66;;;5.16;66.45
7335;BME280;3708;42.632;23.378;2022-12-18T06:48:54;95409.22;;;5.17;66.73
7335;BME280;3708;42.632;23.378;2022-12-18T06:51:22;95404.06;;;5.37;66.30
7335;BME280;3708;42.632;23.378;2022-12-18T06:53:49;95408.16;;;5.08;66.41
7335;BME280;3708;42.632;23.378;2022-12-18T06:56:16;95407.91;;;5.09;66.27
7335;BME280;3708;42.632;23.378;2022-12-18T06:58:43;95422.06;;;5.69;64.83
7335;BME280;3708;42.632;23.378;2022-12-18T07:01:12;95413.13;;;5.24;64.25
7335;BME280;3708;42.632;23.378;2022-12-18T07:03:40;95414.97;;;5.29;64.90
7335;BME280;3708;42.632;23.378;2022-12-18T07:06:13;95418.75;;;4.96;65.91
7335;BME280;3708;42.632;23.378;2022-12-18T07:08:40;95419.66;;;5.42;64.25
7335;BME280;3708;42.632;23.378;2022-12-18T07:11:07;95422.22;;;5.22;65.06
7335;BME280;3708;42.632;23.378;2022-12-18T07:13:34;95430.28;;;5.30;65.25
7335;BME280;3708;42.632;23.378;2022-12-18T07:16:06;95431.88;;;5.41;64.19
7335;BME280;3708;42.632;23.378;2022-12-18T07:18:35;95439.19;;;5.70;63.48
7335;BME280;3708;42.632;23.378;2022-12-18T07:21:05;95429.03;;;5.63;63.02
7335;BME280;3708;42.632;23.378;2022-12-18T07:23:33;95433.38;;;5.12;64.68
7335;BME280;3708;42.632;23.378;2022-12-18T07:26:01;95432.63;;;5.27;64.39
7335;BME280;3708;42.632;23.378;2022-12-18T07:28:29;95428.69;;;5.04;65.78
7335;BME280;3708;42.632;23.378;2022-12-18T07:30:56;95434.38;;;5.01;65.00
7335;BME280;3708;42.632;23.378;2022-12-18T07:33:24;95441.66;;;5.04;65.30
7335;BME280;3708;42.632;23.378;2022-12-18T07:35:53;95439.16;;;5.39;64.18
7335;BME280;3708;42.632;23.378;2022-12-18T07:38:20;95446.59;;;5.06;64.44
7335;BME280;3708;42.632;23.378;2022-12-18T07:40:47;95451.56;;;5.17;64.65
7335;BME280;3708;42.632;23.378;2022-12-18T07:43:14;95447.94;;;5.18;64.68
7335;BME280;3708;42.632;23.378;2022-12-18T07:45:42;95448.34;;;4.90;65.29
7335;BME280;3708;42.632;23.378;2022-12-18T07:48:09;95454.69;;;5.19;64.28
7335;BME280;3708;42.632;23.378;2022-12-18T07:50:36;95460.97;;;5.33;64.18
7335;BME280;3708;42.632;23.378;2022-12-18T07:53:05;95471.03;;;5.20;64.00
7335;BME280;3708;42.632;23.378;2022-12-18T07:55:32;95463.97;;;5.05;63.80
7335;BME280;3708;42.632;23.378;2022-12-18T07:58:01;95464.06;;;5.25;63.50
7335;BME280;3708;42.632;23.378;2022-12-18T08:00:28;95480.00;;;4.87;64.00
7335;BME280;3708;42.632;23.378;2022-12-18T08:03:02;95470.00;;;5.16;63.49
7335;BME280;3708;42.632;23.378;2022-12-18T08:05:29;95476.53;;;5.23;63.29
7335;BME280;3708;42.632;23.378;2022-12-18T08:07:56;95483.25;;;5.19;63.75
7335;BME280;3708;42.632;23.378;2022-12-18T08:10:26;95482.63;;;4.92;64.66
7335;BME280;3708;42.632;23.378;2022-12-18T08:12:53;95490.94;;;4.89;64.07
7335;BME280;3708;42.632;23.378;2022-12-18T08:15:20;95495.16;;;4.58;64.25
7335;BME280;3708;42.632;23.378;2022-12-18T08:17:47;95510.72;;;5.05;63.77
7335;BME280;3708;42.632;23.378;2022-12-18T08:20:14;95509.03;;;4.74;64.22
7335;BME280;3708;42.632;23.378;2022-12-18T08:22:42;95512.19;;;4.86;63.80
7335;BME280;3708;42.632;23.378;2022-12-18T08:25:09;95511.91;;;4.83;64.84
7335;BME280;3708;42.632;23.378;2022-12-18T08:27:38;95527.09;;;4.59;65.24
7335;BME280;3708;42.632;23.378;2022-12-18T08:30:06;95531.69;;;4.89;64.32
7335;BME280;3708;42.632;23.378;2022-12-18T08:32:33;95530.13;;;4.51;64.43
7335;BME280;3708;42.632;23.378;2022-12-18T08:35:00;95544.53;;;4.69;64.42
7335;BME280;3708;42.632;23.378;2022-12-18T08:37:27;95517.50;;;5.11;63.72
7335;BME280;3708;42.632;23.378;2022-12-18T08:39:54;95524.19;;;4.50;65.14
7335;BME280;3708;42.632;23.378;2022-12-18T08:42:21;95519.78;;;4.98;63.50
7335;BME280;3708;42.632;23.378;2022-12-18T08:45:08;95521.44;;;5.19;63.23
7335;BME280;3708;42.632;23.378;2022-12-18T08:47:35;95529.44;;;5.07;63.28
7335;BME280;3708;42.632;23.378;2022-12-18T08:50:02;95537.00;;;4.67;64.69
7335;BME280;3708;42.632;23.378;2022-12-18T08:52:31;95526.97;;;4.86;64.80
7335;BME280;3708;42.632;23.378;2022-12-18T08:54:58;95527.72;;;4.76;63.83
7335;BME280;3708;42.632;23.378;2022-12-18T08:57:25;95528.81;;;4.90;63.76
7335;BME280;3708;42.632;23.378;2022-12-18T08:59:53;95520.69;;;5.28;62.26
7335;BME280;3708;42.632;23.378;2022-12-18T09:02:22;95532.47;;;4.89;63.46
7335;BME280;3708;42.632;23.378;2022-12-18T09:04:48;95526.66;;;4.77;63.66
7335;BME280;3708;42.632;23.378;2022-12-18T09:07:15;95522.69;;;5.06;63.27
7335;BME280;3708;42.632;23.378;2022-12-18T09:09:43;95517.19;;;5.03;63.28
7335;BME280;3708;42.632;23.378;2022-12-18T09:12:10;95512.78;;;5.03;63.13
7335;BME280;3708;42.632;23.378;2022-12-18T09:14:38;95521.50;;;5.34;62.55
7335;BME280;3708;42.632;23.378;2022-12-18T09:17:07;95510.84;;;5.35;62.84
7335;BME280;3708;42.632;23.378;2022-12-18T09:19:40;95520.75;;;5.43;62.44
7335;BME280;3708;42.632;23.378;2022-12-18T09:22:07;95521.56;;;4.87;62.99
7335;BME280;3708;42.632;23.378;2022-12-18T09:24:35;95519.88;;;4.71;64.02
7335;BME280;3708;42.632;23.378;2022-12-18T09:27:02;95521.19;;;5.15;63.32
7335;BME280;3708;42.632;23.378;2022-12-18T09:29:30;95519.84;;;5.85;67.63
7335;BME280;3708;42.632;23.378;2022-12-18T09:31:57;95523.28;;;5.23;63.50
7335;BME280;3708;42.632;23.378;2022-12-18T09:34:25;95519.16;;;5.37;62.14
7335;BME280;3708;42.632;23.378;2022-12-18T09:37:18;95521.69;;;5.22;62.02
7335;BME280;3708;42.632;23.378;2022-12-18T09:39:52;95532.63;;;5.19;62.24
7335;BME280;3708;42.632;23.378;2022-12-18T09:42:29;95518.63;;;5.35;61.87
7335;BME280;3708;42.632;23.378;2022-12-18T09:45:13;95538.91;;;5.33;61.49
7335;BME280;3708;42.632;23.378;2022-12-18T09:47:43;95528.41;;;5.13;61.59
7335;BME280;3708;42.632;23.378;2022-12-18T09:50:24;95524.09;;;5.34;60.70
7335;BME280;3708;42.632;23.378;2022-12-18T09:53:05;95536.50;;;5.22;61.00
7335;BME280;3708;42.632;23.378;2022-12-18T09:55:37;95532.09;;;5.22;60.63
7335;BME280;3708;42.632;23.378;2022-12-18T09:58:13;95512.66;;;5.30;60.46
7335;BME280;3708;42.632;23.378;2022-12-18T10:00:42;95512.06;;;5.13;61.14
7335;BME280;3708;42.632;23.378;2022-12-18T10:03:11;95521.22;;;5.30;60.76
7335;BME280;3708;42.632;23.378;2022-12-18T10:05:45;95527.28;;;5.61;60.23
7335;BME280;3708;42.632;23.378;2022-12-18T10:08:27;95537.34;;;5.37;60.33
7335;BME280;3708;42.632;23.378;2022-12-18T10:11:01;95514.72;;;5.28;60.30
7335;BME280;3708;42.632;23.378;2022-12-18T10:13:37;95540.47;;;5.34;59.44
7335;BME280;3708;42.632;23.378;2022-12-18T10:16:14;95528.25;;;5.30;59.22
7335;BME280;3708;42.632;23.378;2022-12-18T10:19:05;95532.75;;;5.60;58.25
7335;BME280;3708;42.632;23.378;2022-12-18T10:21:43;95534.81;;;5.53;58.61
7335;BME280;3708;42.632;23.378;2022-12-18T10:24:20;95525.06;;;5.90;57.94
7335;BME280;3708;42.632;23.378;2022-12-18T10:26:52;95536.13;;;5.55;58.86
7335;BME280;3708;42.632;23.378;2022-12-18T10:29:22;95530.31;;;5.28;60.00
7335;BME280;3708;42.632;23.378;2022-12-18T10:31:55;95531.34;;;4.75;60.15
7335;BME280;3708;42.632;23.378;2022-12-18T10:34:23;95538.72;;;4.93;60.09
7335;BME280;3708;42.632;23.378;2022-12-18T10:36:50;95524.28;;;4.71;59.77
7335;BME280;3708;42.632;23.378;2022-12-18T10:39:21;95526.19;;;4.80;60.23
7335;BME280;3708;42.632;23.378;2022-12-18T10:41:49;95524.22;;;5.07;59.53
7335;BME280;3708;42.632;23.378;2022-12-18T10:44:18;95515.53;;;5.38;58.81
7335;BME280;3708;42.632;23.378;2022-12-18T10:46:46;95516.97;;;5.09;59.47
7335;BME280;3708;42.632;23.378;2022-12-18T10:49:20;95514.13;;;5.11;59.54
7335;BME280;3708;42.632;23.378;2022-12-18T10:51:48;95520.63;;;5.13;60.16
7335;BME280;3708;42.632;23.378;2022-12-18T10:54:17;95524.34;;;5.27;59.17
7335;BME280;3708;42.632;23.378;2022-12-18T10:56:45;95527.66;;;5.13;60.39
7335;BME280;3708;42.632;23.378;2022-12-18T10:59:14;95545.00;;;5.07;59.97
7335;BME280;3708;42.632;23.378;2022-12-18T11:01:51;95539.38;;;4.74;60.72
7335;BME280;3708;42.632;23.378;2022-12-18T11:04:21;95523.97;;;4.57;61.07
7335;BME280;3708;42.632;23.378;2022-12-18T11:06:57;95516.59;;;4.86;60.95
7335;BME280;3708;42.632;23.378;2022-12-18T11:09:26;95511.13;;;4.82;61.13
7335;BME280;3708;42.632;23.378;2022-12-18T11:11:58;95507.25;;;4.90;60.41
7335;BME280;3708;42.632;23.378;2022-12-18T11:14:28;95527.94;;;4.75;60.58
7335;BME280;3708;42.632;23.378;2022-12-18T11:16:56;95539.69;;;4.82;59.21
7335;BME280;3708;42.632;23.378;2022-12-18T11:19:32;95530.25;;;5.18;58.10
7335;BME280;3708;42.632;23.378;2022-12-18T11:22:01;95526.66;;;4.72;57.44
7335;BME280;3708;42.632;23.378;2022-12-18T11:24:30;95530.84;;;4.83;57.25
7335;BME280;3708;42.632;23.378;2022-12-18T11:27:01;95526.22;;;4.85;57.29
7335;BME280;3708;42.632;23.378;2022-12-18T11:29:33;95525.84;;;5.18;56.77
7335;BME280;3708;42.632;23.378;2022-12-18T11:32:29;95532.44;;;5.46;56.05
7335;BME280;3708;42.632;23.378;2022-12-18T11:35:10;95529.13;;;5.56;55.57
7335;BME280;3708;42.632;23.378;2022-12-18T11:37:40;95532.19;;;5.43;56.39
7335;BME280;3708;42.632;23.378;2022-12-18T11:40:14;95526.50;;;5.56;55.86
7335;BME280;3708;42.632;23.378;2022-12-18T11:42:50;95526.63;;;5.86;55.61
7335;BME280;3708;42.632;23.378;2022-12-18T11:45:25;95530.66;;;5.52;56.16
7335;BME280;3708;42.632;23.378;2022-12-18T11:47:57;95537.16;;;5.59;55.75
7335;BME280;3708;42.632;23.378;2022-12-18T11:50:32;95521.81;;;5.48;56.25
7335;BME280;3708;42.632;23.378;2022-12-18T11:53:02;95537.72;;;5.66;56.01
7335;BME280;3708;42.632;23.378;2022-12-18T11:55:37;95538.75;;;5.65;55.59
7335;BME280;3708;42.632;23.378;2022-12-18T11:58:17;95543.69;;;5.67;55.57
7335;BME280;3708;42.632;23.378;2022-12-18T12:01:00;95538.31;;;5.93;54.35
7335;BME280;3708;42.632;23.378;2022-12-18T12:03:49;95529.75;;;5.88;53.94
7335;BME280;3708;42.632;23.378;2022-12-18T12:06:29;95522.13;;;5.66;53.92
7335;BME280;3708;42.632;23.378;2022-12-18T12:09:08;95531.13;;;5.38;54.95
7335;BME280;3708;42.632;23.378;2022-12-18T12:11:44;95530.09;;;5.39;55.79
7335;BME280;3708;42.632;23.378;2022-12-18T12:14:27;95531.72;;;4.99;56.42
7335;BME280;3708;42.632;23.378;2022-12-18T12:16:58;95533.53;;;5.60;55.06
7335;BME280;3708;42.632;23.378;2022-12-18T12:19:42;95537.94;;;5.50;55.28
7335;BME280;3708;42.632;23.378;2022-12-18T12:22:18;95536.69;;;5.72;55.52
7335;BME280;3708;42.632;23.378;2022-12-18T12:24:57;95535.03;;;5.46;56.17
7335;BME280;3708;42.632;23.378;2022-12-18T12:27:33;95539.00;;;5.64;55.63
7335;BME280;3708;42.632;23.378;2022-12-18T12:30:08;95540.88;;;5.11;57.44
7335;BME280;3708;42.632;23.378;2022-12-18T12:32:46;95544.75;;;5.76;56.28
7335;BME280;3708;42.632;23.378;2022-12-18T12:35:25;95540.03;;;5.58;55.86
7335;BME280;3708;42.632;23.378;2022-12-18T12:38:05;95536.63;;;5.47;57.03
7335;BME280;3708;42.632;23.378;2022-12-18T12:40:39;95537.22;;;5.79;56.08
7335;BME280;3708;42.632;23.378;2022-12-18T12:43:17;95541.59;;;5.64;56.38
7335;BME280;3708;42.632;23.378;2022-12-18T12:45:49;95543.22;;;5.80;55.86
7335;BME280;3708;42.632;23.378;2022-12-18T12:48:28;95543.25;;;5.90;55.78
7335;BME280;3708;42.632;23.378;2022-12-18T12:51:00;95542.75;;;5.93;55.74
7335;BME280;3708;42.632;23.378;2022-12-18T12:53:34;95543.94;;;5.60;56.67
7335;BME280;3708;42.632;23.378;2022-12-18T12:56:02;95553.00;;;5.53;56.90
7335;BME280;3708;42.632;23.378;2022-12-18T12:58:38;95546.75;;;5.49;57.02
7335;BME280;3708;42.632;23.378;2022-12-18T13:01:17;95553.06;;;5.63;57.12
7335;BME280;3708;42.632;23.378;2022-12-18T13:03:55;95554.72;;;6.04;56.22
7335;BME280;3708;42.632;23.378;2022-12-18T13:06:30;95563.69;;;5.56;57.03
7335;BME280;3708;42.632;23.378;2022-12-18T13:09:01;95564.44;;;5.57;57.24
7335;BME280;3708;42.632;23.378;2022-12-18T13:11:34;95568.16;;;5.71;57.65
7335;BME280;3708;42.632;23.378;2022-12-18T13:14:26;95576.00;;;5.91;57.09
7335;BME280;3708;42.632;23.378;2022-12-18T13:17:22;95569.53;;;5.88;56.62
7335;BME280;3708;42.632;23.378;2022-12-18T13:20:04;95564.00;;;5.75;57.05
7335;BME280;3708;42.632;23.378;2022-12-18T13:22:36;95563.97;;;5.70;57.68
7335;BME280;3708;42.632;23.378;2022-12-18T13:25:32;95578.16;;;6.24;56.63
7335;BME280;3708;42.632;23.378;2022-12-18T13:28:04;95583.66;;;6.63;55.86
7335;BME280;3708;42.632;23.378;2022-12-18T13:30:48;95587.50;;;6.05;57.02
7335;BME280;3708;42.632;23.378;2022-12-18T13:33:40;95579.09;;;5.83;56.52
7335;BME280;3708;42.632;23.378;2022-12-18T13:36:28;95589.06;;;6.11;55.96
7335;BME280;3708;42.632;23.378;2022-12-18T13:39:31;95580.16;;;5.82;56.81
7335;BME280;3708;42.632;23.378;2022-12-18T13:42:39;95580.56;;;5.59;57.67
7335;BME280;3708;42.632;23.378;2022-12-18T13:45:59;95592.59;;;5.75;57.14